sensor_id;sensor_type;location;lat;lon;timestamp;P1;durP1;ratioP1;P2;durP2;ratioP2
73893;SDS011;62699;50.534;12.784;2022-11-20T00:00:46;17.65;;;9.38;;
73893;SDS011;62699;50.534;12.784;2022-11-20T00:05:46;17.80;;;9.48;;
73893;SDS011;62699;50.534;12.784;2022-11-20T00:10:46;19.36;;;9.96;;
73893;SDS011;62699;50.534;12.784;2022-11-20T00:15:47;17.72;;;9.78;;
73893;SDS011;62699;50.534;12.784;2022-11-20T00:20:47;15.27;;;8.50;;
73893;SDS011;62699;50.534;12.784;2022-11-20T00:25:47;17.08;;;8.50;;
73893;SDS011;62699;50.534;12.784;2022-11-20T00:30:48;21.20;;;11.07;;
73893;SDS011;62699;50.534;12.784;2022-11-20T00:35:48;19.77;;;10.15;;
73893;SDS011;62699;50.534;12.784;2022-11-20T00:40:54;18.75;;;9.50;;
73893;SDS011;62699;50.534;12.784;2022-11-20T00:45:59;16.40;;;8.53;;
73893;SDS011;62699;50.534;12.784;2022-11-20T00:51:14;14.52;;;8.77;;
73893;SDS011;62699;50.534;12.784;2022-11-20T00:56:18;16.67;;;7.53;;
73893;SDS011;62699;50.534;12.784;2022-11-20T01:01:20;12.20;;;6.70;;
73893;SDS011;62699;50.534;12.784;2022-11-20T01:11:28;12.37;;;6.90;;
73893;SDS011;62699;50.534;12.784;2022-11-20T01:16:32;16.88;;;8.60;;
73893;SDS011;62699;50.534;12.784;2022-11-20T01:21:34;13.88;;;7.18;;
73893;SDS011;62699;50.534;12.784;2022-11-20T01:26:37;14.32;;;7.95;;
73893;SDS011;62699;50.534;12.784;2022-11-20T01:31:39;14.87;;;8.00;;
73893;SDS011;62699;50.534;12.784;2022-11-20T01:36:39;13.93;;;6.60;;
73893;SDS011;62699;50.534;12.784;2022-11-20T01:41:41;13.07;;;6.87;;
73893;SDS011;62699;50.534;12.784;2022-11-20T01:47:02;12.45;;;6.43;;
73893;SDS011;62699;50.534;12.784;2022-11-20T01:52:06;10.13;;;5.13;;
73893;SDS011;62699;50.534;12.784;2022-11-20T01:57:10;9.03;;;4.87;;
73893;SDS011;62699;50.534;12.784;2022-11-20T02:02:12;7.07;;;4.10;;
73893;SDS011;62699;50.534;12.784;2022-11-20T02:07:13;7.73;;;4.47;;
73893;SDS011;62699;50.534;12.784;2022-11-20T02:12:13;9.38;;;4.60;;
73893;SDS011;62699;50.534;12.784;2022-11-20T02:17:34;13.50;;;5.63;;
73893;SDS011;62699;50.534;12.784;2022-11-20T02:22:36;9.53;;;5.53;;
73893;SDS011;62699;50.534;12.784;2022-11-20T02:27:41;9.73;;;5.33;;
73893;SDS011;62699;50.534;12.784;2022-11-20T02:32:42;7.63;;;4.73;;
73893;SDS011;62699;50.534;12.784;2022-11-20T02:37:42;8.07;;;4.77;;
73893;SDS011;62699;50.534;12.784;2022-11-20T02:42:43;9.37;;;5.70;;
73893;SDS011;62699;50.534;12.784;2022-11-20T02:47:43;11.88;;;5.38;;
73893;SDS011;62699;50.534;12.784;2022-11-20T02:52:43;8.45;;;5.20;;
73893;SDS011;62699;50.534;12.784;2022-11-20T02:57:44;9.97;;;5.80;;
73893;SDS011;62699;50.534;12.784;2022-11-20T03:02:44;10.30;;;5.34;;
73893;SDS011;62699;50.534;12.784;2022-11-20T03:07:44;10.97;;;5.27;;
73893;SDS011;62699;50.534;12.784;2022-11-20T03:12:44;10.27;;;5.93;;
73893;SDS011;62699;50.534;12.784;2022-11-20T03:17:45;10.37;;;6.07;;
73893;SDS011;62699;50.534;12.784;2022-11-20T03:22:45;13.35;;;5.50;;
73893;SDS011;62699;50.534;12.784;2022-11-20T03:27:46;9.97;;;4.57;;
73893;SDS011;62699;50.534;12.784;2022-11-20T03:32:46;9.64;;;5.12;;
73893;SDS011;62699;50.534;12.784;2022-11-20T03:37:46;7.83;;;4.80;;
73893;SDS011;62699;50.534;12.784;2022-11-20T03:42:47;12.80;;;5.53;;
73893;SDS011;62699;50.534;12.784;2022-11-20T03:47:47;7.80;;;4.67;;
73893;SDS011;62699;50.534;12.784;2022-11-20T03:52:47;8.53;;;4.47;;
73893;SDS011;62699;50.534;12.784;2022-11-20T03:57:48;11.07;;;5.60;;
73893;SDS011;62699;50.534;12.784;2022-11-20T04:02:48;10.10;;;4.73;;
73893;SDS011;62699;50.534;12.784;2022-11-20T04:07:48;10.50;;;4.77;;
73893;SDS011;62699;50.534;12.784;2022-11-20T04:12:48;9.17;;;4.23;;
73893;SDS011;62699;50.534;12.784;2022-11-20T04:17:49;11.47;;;4.87;;
73893;SDS011;62699;50.534;12.784;2022-11-20T04:22:52;9.17;;;5.00;;
73893;SDS011;62699;50.534;12.784;2022-11-20T04:27:53;7.47;;;4.27;;
73893;SDS011;62699;50.534;12.784;2022-11-20T04:32:54;8.20;;;4.30;;
73893;SDS011;62699;50.534;12.784;2022-11-20T04:37:54;10.47;;;4.90;;
73893;SDS011;62699;50.534;12.784;2022-11-20T04:42:55;8.80;;;5.10;;
73893;SDS011;62699;50.534;12.784;2022-11-20T04:47:55;6.13;;;3.47;;
73893;SDS011;62699;50.534;12.784;2022-11-20T04:52:56;7.28;;;4.00;;
73893;SDS011;62699;50.534;12.784;2022-11-20T04:57:56;8.62;;;4.22;;
73893;SDS011;62699;50.534;12.784;2022-11-20T05:02:56;6.20;;;3.87;;
73893;SDS011;62699;50.534;12.784;2022-11-20T05:07:57;8.27;;;4.33;;
73893;SDS011;62699;50.534;12.784;2022-11-20T05:12:57;7.33;;;4.50;;
73893;SDS011;62699;50.534;12.784;2022-11-20T05:17:58;8.50;;;3.88;;
73893;SDS011;62699;50.534;12.784;2022-11-20T05:22:58;7.03;;;3.80;;
73893;SDS011;62699;50.534;12.784;2022-11-20T05:27:59;6.37;;;3.63;;
73893;SDS011;62699;50.534;12.784;2022-11-20T05:32:59;9.05;;;4.68;;
73893;SDS011;62699;50.534;12.784;2022-11-20T05:37:59;5.43;;;3.60;;
73893;SDS011;62699;50.534;12.784;2022-11-20T05:43:00;5.83;;;4.03;;
73893;SDS011;62699;50.534;12.784;2022-11-20T05:48:00;6.70;;;4.17;;
73893;SDS011;62699;50.534;12.784;2022-11-20T05:53:01;7.27;;;4.13;;
73893;SDS011;62699;50.534;12.784;2022-11-20T05:58:01;7.57;;;4.53;;
73893;SDS011;62699;50.534;12.784;2022-11-20T06:03:01;11.70;;;5.70;;
73893;SDS011;62699;50.534;12.784;2022-11-20T06:08:02;7.93;;;4.73;;
73893;SDS011;62699;50.534;12.784;2022-11-20T06:13:02;7.83;;;4.60;;
73893;SDS011;62699;50.534;12.784;2022-11-20T06:18:03;6.76;;;3.94;;
73893;SDS011;62699;50.534;12.784;2022-11-20T06:23:03;5.60;;;3.60;;
73893;SDS011;62699;50.534;12.784;2022-11-20T06:28:03;9.23;;;4.30;;
73893;SDS011;62699;50.534;12.784;2022-11-20T06:33:03;6.50;;;3.80;;
73893;SDS011;62699;50.534;12.784;2022-11-20T06:38:04;14.47;;;8.03;;
73893;SDS011;62699;50.534;12.784;2022-11-20T06:43:04;17.97;;;9.30;;
73893;SDS011;62699;50.534;12.784;2022-11-20T06:48:04;18.15;;;7.75;;
73893;SDS011;62699;50.534;12.784;2022-11-20T06:53:05;16.00;;;9.03;;
73893;SDS011;62699;50.534;12.784;2022-11-20T06:58:05;10.80;;;7.00;;
73893;SDS011;62699;50.534;12.784;2022-11-20T07:03:06;10.00;;;5.60;;
73893;SDS011;62699;50.534;12.784;2022-11-20T07:08:08;12.50;;;6.47;;
73893;SDS011;62699;50.534;12.784;2022-11-20T07:13:08;12.00;;;5.98;;
73893;SDS011;62699;50.534;12.784;2022-11-20T07:18:09;45.88;;;20.80;;
73893;SDS011;62699;50.534;12.784;2022-11-20T07:23:09;32.83;;;14.60;;
73893;SDS011;62699;50.534;12.784;2022-11-20T07:28:09;20.50;;;9.40;;
73893;SDS011;62699;50.534;12.784;2022-11-20T07:33:10;18.67;;;10.20;;
73893;SDS011;62699;50.534;12.784;2022-11-20T07:38:10;15.00;;;8.38;;
73893;SDS011;62699;50.534;12.784;2022-11-20T07:43:11;28.73;;;15.18;;
73893;SDS011;62699;50.534;12.784;2022-11-20T07:48:11;17.50;;;11.06;;
73893;SDS011;62699;50.534;12.784;2022-11-20T07:53:11;17.20;;;8.25;;
73893;SDS011;62699;50.534;12.784;2022-11-20T07:58:13;14.25;;;7.70;;
73893;SDS011;62699;50.534;12.784;2022-11-20T08:03:14;24.05;;;14.80;;
73893;SDS011;62699;50.534;12.784;2022-11-20T08:08:14;39.38;;;23.85;;
73893;SDS011;62699;50.534;12.784;2022-11-20T08:13:14;34.10;;;19.13;;
73893;SDS011;62699;50.534;12.784;2022-11-20T08:18:33;13.27;;;7.22;;
73893;SDS011;62699;50.534;12.784;2022-11-20T08:23:34;29.77;;;15.95;;
73893;SDS011;62699;50.534;12.784;2022-11-20T08:28:36;20.95;;;10.65;;
73893;SDS011;62699;50.534;12.784;2022-11-20T08:33:37;11.08;;;5.72;;
73893;SDS011;62699;50.534;12.784;2022-11-20T08:38:37;14.75;;;7.38;;
73893;SDS011;62699;50.534;12.784;2022-11-20T08:43:37;14.93;;;7.50;;
73893;SDS011;62699;50.534;12.784;2022-11-20T08:48:38;16.55;;;8.68;;
73893;SDS011;62699;50.534;12.784;2022-11-20T08:53:38;14.35;;;8.20;;
73893;SDS011;62699;50.534;12.784;2022-11-20T08:58:39;18.52;;;9.73;;
73893;SDS011;62699;50.534;12.784;2022-11-20T09:03:40;21.80;;;12.18;;
73893;SDS011;62699;50.534;12.784;2022-11-20T09:08:41;14.65;;;8.32;;
73893;SDS011;62699;50.534;12.784;2022-11-20T09:13:42;14.05;;;8.32;;
73893;SDS011;62699;50.534;12.784;2022-11-20T09:18:42;14.18;;;8.80;;
73893;SDS011;62699;50.534;12.784;2022-11-20T09:23:43;15.30;;;9.32;;
73893;SDS011;62699;50.534;12.784;2022-11-20T09:28:43;20.13;;;11.85;;
73893;SDS011;62699;50.534;12.784;2022-11-20T09:33:44;14.55;;;7.93;;
73893;SDS011;62699;50.534;12.784;2022-11-20T09:38:47;16.27;;;9.27;;
73893;SDS011;62699;50.534;12.784;2022-11-20T09:44:07;17.65;;;9.30;;
73893;SDS011;62699;50.534;12.784;2022-11-20T09:49:23;14.55;;;8.45;;
73893;SDS011;62699;50.534;12.784;2022-11-20T09:54:34;14.15;;;8.07;;
73893;SDS011;62699;50.534;12.784;2022-11-20T10:04:48;45.05;;;23.15;;
73893;SDS011;62699;50.534;12.784;2022-11-20T10:09:53;41.15;;;20.13;;
73893;SDS011;62699;50.534;12.784;2022-11-20T10:15:06;15.13;;;8.57;;
73893;SDS011;62699;50.534;12.784;2022-11-20T10:31:34;18.55;;;10.40;;
73893;SDS011;62699;50.534;12.784;2022-11-20T10:36:36;20.77;;;11.25;;
73893;SDS011;62699;50.534;12.784;2022-11-20T10:41:41;40.38;;;23.55;;
73893;SDS011;62699;50.534;12.784;2022-11-20T10:46:45;26.20;;;13.95;;
73893;SDS011;62699;50.534;12.784;2022-11-20T10:56:52;30.50;;;16.15;;
73893;SDS011;62699;50.534;12.784;2022-11-20T11:01:57;27.30;;;14.43;;
73893;SDS011;62699;50.534;12.784;2022-11-20T11:07:12;21.35;;;12.52;;
73893;SDS011;62699;50.534;12.784;2022-11-20T11:12:30;15.32;;;8.57;;
73893;SDS011;62699;50.534;12.784;2022-11-20T11:17:31;22.92;;;13.27;;
73893;SDS011;62699;50.534;12.784;2022-11-20T11:22:34;35.78;;;20.88;;
73893;SDS011;62699;50.534;12.784;2022-11-20T11:27:48;22.60;;;11.35;;
73893;SDS011;62699;50.534;12.784;2022-11-20T11:32:50;15.40;;;9.00;;
73893;SDS011;62699;50.534;12.784;2022-11-20T11:37:50;14.52;;;8.85;;
73893;SDS011;62699;50.534;12.784;2022-11-20T11:42:55;19.75;;;13.48;;
73893;SDS011;62699;50.534;12.784;2022-11-20T11:48:00;24.73;;;12.52;;
73893;SDS011;62699;50.534;12.784;2022-11-20T11:53:12;30.38;;;14.77;;
73893;SDS011;62699;50.534;12.784;2022-11-20T12:03:37;18.30;;;11.10;;
73893;SDS011;62699;50.534;12.784;2022-11-20T12:08:55;20.25;;;11.55;;
73893;SDS011;62699;50.534;12.784;2022-11-20T12:14:13;21.55;;;11.00;;
73893;SDS011;62699;50.534;12.784;2022-11-20T12:19:19;22.65;;;12.10;;
73893;SDS011;62699;50.534;12.784;2022-11-20T12:24:30;29.42;;;15.62;;
73893;SDS011;62699;50.534;12.784;2022-11-20T12:40:30;20.50;;;11.93;;
73893;SDS011;62699;50.534;12.784;2022-11-20T12:51:43;32.25;;;18.42;;
73893;SDS011;62699;50.534;12.784;2022-11-20T12:56:55;27.63;;;14.85;;
73893;SDS011;62699;50.534;12.784;2022-11-20T13:07:27;23.52;;;14.02;;
73893;SDS011;62699;50.534;12.784;2022-11-20T13:12:33;24.13;;;14.07;;
73893;SDS011;62699;50.534;12.784;2022-11-20T13:17:54;21.05;;;11.98;;
73893;SDS011;62699;50.534;12.784;2022-11-20T13:23:00;22.02;;;11.80;;
73893;SDS011;62699;50.534;12.784;2022-11-20T13:28:01;20.66;;;11.04;;
73893;SDS011;62699;50.534;12.784;2022-11-20T13:33:06;28.38;;;15.65;;
73893;SDS011;62699;50.534;12.784;2022-11-20T13:38:23;22.83;;;12.00;;
73893;SDS011;62699;50.534;12.784;2022-11-20T13:43:28;22.02;;;11.85;;
73893;SDS011;62699;50.534;12.784;2022-11-20T13:48:39;22.05;;;12.25;;
73893;SDS011;62699;50.534;12.784;2022-11-20T13:53:50;25.40;;;14.48;;
73893;SDS011;62699;50.534;12.784;2022-11-20T14:04:30;20.17;;;11.25;;
73893;SDS011;62699;50.534;12.784;2022-11-20T14:09:35;13.23;;;7.65;;
73893;SDS011;62699;50.534;12.784;2022-11-20T14:14:36;16.38;;;10.57;;
73893;SDS011;62699;50.534;12.784;2022-11-20T14:19:51;11.18;;;6.75;;
73893;SDS011;62699;50.534;12.784;2022-11-20T14:35:45;12.77;;;7.18;;
73893;SDS011;62699;50.534;12.784;2022-11-20T14:40:47;16.90;;;9.00;;
73893;SDS011;62699;50.534;12.784;2022-11-20T14:45:51;36.17;;;20.65;;
73893;SDS011;62699;50.534;12.784;2022-11-20T14:55:58;15.55;;;8.35;;
73893;SDS011;62699;50.534;12.784;2022-11-20T15:01:01;21.02;;;11.25;;
73893;SDS011;62699;50.534;12.784;2022-11-20T15:06:06;18.45;;;9.70;;
73893;SDS011;62699;50.534;12.784;2022-11-20T15:11:18;19.25;;;10.13;;
73893;SDS011;62699;50.534;12.784;2022-11-20T15:16:22;18.98;;;10.10;;
73893;SDS011;62699;50.534;12.784;2022-11-20T15:21:24;21.85;;;12.65;;
73893;SDS011;62699;50.534;12.784;2022-11-20T15:26:25;20.60;;;11.48;;
73893;SDS011;62699;50.534;12.784;2022-11-20T15:31:27;18.48;;;9.48;;
73893;SDS011;62699;50.534;12.784;2022-11-20T15:36:28;19.63;;;10.00;;
73893;SDS011;62699;50.534;12.784;2022-11-20T15:41:28;31.75;;;17.77;;
73893;SDS011;62699;50.534;12.784;2022-11-20T15:46:29;28.23;;;14.90;;
73893;SDS011;62699;50.534;12.784;2022-11-20T15:51:35;34.17;;;18.90;;
73893;SDS011;62699;50.534;12.784;2022-11-20T15:56:37;35.92;;;20.83;;
73893;SDS011;62699;50.534;12.784;2022-11-20T16:01:37;28.67;;;17.13;;
73893;SDS011;62699;50.534;12.784;2022-11-20T16:06:37;26.80;;;15.63;;
73893;SDS011;62699;50.534;12.784;2022-11-20T16:11:38;32.58;;;18.25;;
73893;SDS011;62699;50.534;12.784;2022-11-20T16:16:38;28.98;;;16.63;;
73893;SDS011;62699;50.534;12.784;2022-11-20T16:21:40;28.90;;;15.43;;
73893;SDS011;62699;50.534;12.784;2022-11-20T16:26:41;28.08;;;14.68;;
73893;SDS011;62699;50.534;12.784;2022-11-20T16:31:42;27.67;;;14.63;;
73893;SDS011;62699;50.534;12.784;2022-11-20T16:36:43;25.73;;;14.55;;
73893;SDS011;62699;50.534;12.784;2022-11-20T16:41:44;28.48;;;14.70;;
73893;SDS011;62699;50.534;12.784;2022-11-20T16:46:45;30.83;;;14.82;;
73893;SDS011;62699;50.534;12.784;2022-11-20T16:51:45;27.67;;;15.52;;
73893;SDS011;62699;50.534;12.784;2022-11-20T16:56:46;26.25;;;14.35;;
73893;SDS011;62699;50.534;12.784;2022-11-20T17:01:47;26.52;;;14.38;;
73893;SDS011;62699;50.534;12.784;2022-11-20T17:06:47;29.65;;;16.02;;
73893;SDS011;62699;50.534;12.784;2022-11-20T17:11:48;26.13;;;15.00;;
73893;SDS011;62699;50.534;12.784;2022-11-20T17:16:48;48.53;;;27.98;;
73893;SDS011;62699;50.534;12.784;2022-11-20T17:21:49;36.04;;;20.60;;
73893;SDS011;62699;50.534;12.784;2022-11-20T17:26:49;27.83;;;17.00;;
73893;SDS011;62699;50.534;12.784;2022-11-20T17:31:49;26.55;;;15.15;;
73893;SDS011;62699;50.534;12.784;2022-11-20T17:36:50;22.55;;;13.70;;
73893;SDS011;62699;50.534;12.784;2022-11-20T17:41:50;26.20;;;14.57;;
73893;SDS011;62699;50.534;12.784;2022-11-20T17:47:10;29.17;;;17.33;;
73893;SDS011;62699;50.534;12.784;2022-11-20T17:52:11;27.67;;;15.95;;
73893;SDS011;62699;50.534;12.784;2022-11-20T17:57:11;22.15;;;12.73;;
73893;SDS011;62699;50.534;12.784;2022-11-20T18:02:30;23.70;;;12.18;;
73893;SDS011;62699;50.534;12.784;2022-11-20T18:07:32;36.97;;;16.90;;
73893;SDS011;62699;50.534;12.784;2022-11-20T18:12:32;37.28;;;18.85;;
73893;SDS011;62699;50.534;12.784;2022-11-20T18:17:33;29.85;;;15.48;;
73893;SDS011;62699;50.534;12.784;2022-11-20T18:22:34;26.77;;;14.20;;
73893;SDS011;62699;50.534;12.784;2022-11-20T18:27:34;25.70;;;14.16;;
73893;SDS011;62699;50.534;12.784;2022-11-20T18:32:34;24.74;;;12.30;;
73893;SDS011;62699;50.534;12.784;2022-11-20T18:37:35;22.95;;;12.23;;
73893;SDS011;62699;50.534;12.784;2022-11-20T18:42:35;20.13;;;12.82;;
73893;SDS011;62699;50.534;12.784;2022-11-20T18:47:54;26.98;;;13.95;;
73893;SDS011;62699;50.534;12.784;2022-11-20T18:52:54;25.80;;;14.38;;
73893;SDS011;62699;50.534;12.784;2022-11-20T18:57:55;25.60;;;14.75;;
73893;SDS011;62699;50.534;12.784;2022-11-20T19:02:55;24.50;;;13.35;;
73893;SDS011;62699;50.534;12.784;2022-11-20T19:07:55;21.95;;;12.57;;
73893;SDS011;62699;50.534;12.784;2022-11-20T19:12:56;27.08;;;15.93;;
73893;SDS011;62699;50.534;12.784;2022-11-20T19:17:57;28.05;;;15.57;;
73893;SDS011;62699;50.534;12.784;2022-11-20T19:23:00;30.98;;;16.42;;
73893;SDS011;62699;50.534;12.784;2022-11-20T19:28:00;30.35;;;16.52;;
73893;SDS011;62699;50.534;12.784;2022-11-20T19:33:00;31.92;;;17.05;;
73893;SDS011;62699;50.534;12.784;2022-11-20T19:38:01;27.75;;;15.18;;
73893;SDS011;62699;50.534;12.784;2022-11-20T19:43:01;33.45;;;17.23;;
73893;SDS011;62699;50.534;12.784;2022-11-20T19:48:01;29.30;;;16.00;;
73893;SDS011;62699;50.534;12.784;2022-11-20T19:53:02;31.40;;;16.42;;
73893;SDS011;62699;50.534;12.784;2022-11-20T19:58:02;24.05;;;12.60;;
73893;SDS011;62699;50.534;12.784;2022-11-20T20:03:03;27.92;;;14.98;;
73893;SDS011;62699;50.534;12.784;2022-11-20T20:08:03;27.73;;;14.82;;
73893;SDS011;62699;50.534;12.784;2022-11-20T20:13:04;29.58;;;16.88;;
73893;SDS011;62699;50.534;12.784;2022-11-20T20:18:04;25.75;;;14.38;;
73893;SDS011;62699;50.534;12.784;2022-11-20T20:23:05;32.63;;;19.67;;
73893;SDS011;62699;50.534;12.784;2022-11-20T20:28:08;36.92;;;21.63;;
73893;SDS011;62699;50.534;12.784;2022-11-20T20:33:08;60.05;;;33.55;;
73893;SDS011;62699;50.534;12.784;2022-11-20T20:38:08;35.70;;;20.63;;
73893;SDS011;62699;50.534;12.784;2022-11-20T20:43:09;39.03;;;21.60;;
73893;SDS011;62699;50.534;12.784;2022-11-20T20:48:09;37.97;;;20.33;;
73893;SDS011;62699;50.534;12.784;2022-11-20T20:53:09;28.67;;;17.05;;
73893;SDS011;62699;50.534;12.784;2022-11-20T20:58:10;40.35;;;20.40;;
73893;SDS011;62699;50.534;12.784;2022-11-20T21:03:10;40.45;;;22.23;;
73893;SDS011;62699;50.534;12.784;2022-11-20T21:08:11;36.05;;;21.90;;
73893;SDS011;62699;50.534;12.784;2022-11-20T21:13:20;31.00;;;18.20;;
73893;SDS011;62699;50.534;12.784;2022-11-20T21:18:22;29.08;;;16.65;;
73893;SDS011;62699;50.534;12.784;2022-11-20T21:23:23;27.33;;;16.30;;
73893;SDS011;62699;50.534;12.784;2022-11-20T21:28:23;42.85;;;25.58;;
73893;SDS011;62699;50.534;12.784;2022-11-20T21:33:23;41.92;;;24.42;;
73893;SDS011;62699;50.534;12.784;2022-11-20T21:38:24;21.00;;;11.32;;
73893;SDS011;62699;50.534;12.784;2022-11-20T21:43:27;14.93;;;7.85;;
73893;SDS011;62699;50.534;12.784;2022-11-20T21:48:29;11.45;;;6.47;;
73893;SDS011;62699;50.534;12.784;2022-11-20T21:53:30;12.98;;;6.53;;
73893;SDS011;62699;50.534;12.784;2022-11-20T21:58:31;13.35;;;6.55;;
73893;SDS011;62699;50.534;12.784;2022-11-20T22:03:33;12.82;;;6.75;;
73893;SDS011;62699;50.534;12.784;2022-11-20T22:08:34;11.63;;;6.07;;
73893;SDS011;62699;50.534;12.784;2022-11-20T22:13:35;11.68;;;5.53;;
73893;SDS011;62699;50.534;12.784;2022-11-20T22:18:55;15.85;;;5.82;;
73893;SDS011;62699;50.534;12.784;2022-11-20T22:23:56;14.02;;;6.18;;
73893;SDS011;62699;50.534;12.784;2022-11-20T22:28:58;13.27;;;6.03;;
73893;SDS011;62699;50.534;12.784;2022-11-20T22:34:00;13.85;;;6.40;;
73893;SDS011;62699;50.534;12.784;2022-11-20T22:39:01;10.52;;;5.68;;
73893;SDS011;62699;50.534;12.784;2022-11-20T22:44:03;9.57;;;5.93;;
73893;SDS011;62699;50.534;12.784;2022-11-20T22:49:05;11.52;;;6.28;;
73893;SDS011;62699;50.534;12.784;2022-11-20T22:54:15;12.38;;;5.63;;
73893;SDS011;62699;50.534;12.784;2022-11-20T22:59:16;11.05;;;5.80;;
73893;SDS011;62699;50.534;12.784;2022-11-20T23:04:17;17.67;;;10.85;;
73893;SDS011;62699;50.534;12.784;2022-11-20T23:09:17;36.28;;;17.60;;
73893;SDS011;62699;50.534;12.784;2022-11-20T23:14:18;41.20;;;22.83;;
73893;SDS011;62699;50.534;12.784;2022-11-20T23:19:18;17.08;;;8.57;;
73893;SDS011;62699;50.534;12.784;2022-11-20T23:24:18;25.35;;;13.85;;
73893;SDS011;62699;50.534;12.784;2022-11-20T23:29:18;17.73;;;11.05;;
73893;SDS011;62699;50.534;12.784;2022-11-20T23:34:19;10.63;;;7.03;;
73893;SDS011;62699;50.534;12.784;2022-11-20T23:39:19;18.95;;;10.80;;
73893;SDS011;62699;50.534;12.784;2022-11-20T23:44:19;6.65;;;3.22;;
73893;SDS011;62699;50.534;12.784;2022-11-20T23:49:20;16.00;;;10.13;;
73893;SDS011;62699;50.534;12.784;2022-11-20T23:54:20;4.80;;;3.00;;
73893;SDS011;62699;50.534;12.784;2022-11-20T23:59:20;3.80;;;2.78;;
